Flight Track Log - Related Links

Times and Time Zones

All times are in EDT time to prevent confusion due to time zone crossing. See the DAL61 flight status page for this flight to view local times or setup timezone preferences in your user account.

Time Position Orientation Groundspeed Altitude Reporting Facility
EDT Latitude Longitude Course Direction KTS MPH feet Rate Location/Type
Thu 10:10:09 PM 33.6380 -84.4270 North 12 14  Level FlightAware ADS-B
Thu 10:10:53 PM 33.6380 -84.4280 270° West 13 15 96 Level FlightAware ADS-B
Thu 10:13:00 PM 33.4838 -84.2667 180° South  Level FlightAware Approximate
Thu 10:14:00 PM 33.3697 -84.2530 140° Southeast  Level FlightAware Approximate
Thu 10:14:31 PM 33.6370 -84.4280 140° Southeast 21 24  Level FlightAware ADS-B
Thu 10:14:57 PM 33.6360 -84.4290 220° Southwest 21 24 147 Level FlightAware ADS-B
Thu 10:15:41 PM 33.6360 -84.4300 270° West 11 13 155 Level FlightAware ADS-B
Thu 10:16:52 PM 33.6360 -84.4310 270° West 26 30 171 Level FlightAware ADS-B
Thu 10:17:33 PM 33.6360 -84.4340 270° West 29 33 206 Level FlightAware ADS-B
Thu 10:18:53 PM 33.6360 -84.4400 270° West 17 20 234 Level FlightAware ADS-B
Thu 10:19:35 PM 33.6350 -84.4440 253° West 27 31 316 Level FlightAware ADS-B
Thu 10:20:01 PM 33.6380 -84.4430 16° North 27 31 387 Level FlightAware ADS-B
Thu 10:20:43 PM 33.6350 -84.4480 234° Southwest 34 39 450 Level FlightAware ADS-B
Thu 10:21:27 PM 33.6340 -84.4490 220° Southwest 24 28 610 Level FlightAware ADS-B
Thu 10:21:44 PM 33.6340 -84.4470 90° East 50 58 973 Level FlightAware ADS-B
Thu 10:22:11 PM 33.6330 -84.4320 95° East 150 173 1,263 Level FlightAware ADS-B
Thu 10:22:41 PM 33.6340 -84.4020 88° East 187 215 1,200 2,276 Climbing FlightAware ADS-B
Thu 10:23:09 PM 33.6290 -84.3730 102° East 185 213 2,200 1,560 Climbing FlightAware ADS-B
Thu 10:23:31 PM 33.6210 -84.3510 114° Southeast 211 243 2,500 1,038 Climbing FlightAware ADS-B
Thu 10:24:01 PM 33.6110 -84.3160 109° East 236 272 3,100 1,400 Climbing FlightAware ADS-B
Thu 10:24:31 PM 33.5960 -84.2810 117° Southeast 244 281 3,900 1,696 Climbing FlightAware ADS-B
Thu 10:24:47 PM 33.5830 -84.2670 138° Southeast 243 280 4,400 2,182 Climbing FlightAware ADS-B
Thu 10:25:15 PM 33.5540 -84.2480 151° Southeast 247 284 5,500 2,357 Climbing FlightAware ADS-B
Thu 10:25:43 PM 33.5250 -84.2310 154° Southeast 248 285 6,600 2,222 Climbing FlightAware ADS-B
Thu 10:26:09 PM 33.4980 -84.2150 154° Southeast 255 293 7,500 2,429 Climbing FlightAware ADS-B
Thu 10:26:25 PM 33.4800 -84.2050 155° Southeast 250 288 8,300 2,727 Climbing FlightAware ADS-B
Thu 10:26:53 PM 33.4520 -84.1890 155° Southeast 247 284 9,500 2,156 Climbing FlightAware ADS-B
Thu 10:27:29 PM 33.4140 -84.1670 154° Southeast 261 300 10,600 1,184 Climbing FlightAware ADS-B
Thu 10:28:09 PM 33.3660 -84.1400 155° Southeast 305 351 11,000 900 Climbing FlightAware ADS-B
Thu 10:28:49 PM 33.3160 -84.1010 147° Southeast 329 379 11,800 1,756 Climbing FlightAware ADS-B
Thu 10:29:31 PM 33.2620 -84.0590 147° Southeast 332 382 13,400 2,077 Climbing FlightAware ADS-B
Thu 10:30:07 PM 33.2140 -84.0240 149° Southeast 340 391 14,500 1,769 Climbing FlightAware ADS-B
Thu 10:30:49 PM 33.1580 -83.9800 147° Southeast 350 403 15,700 1,683 Climbing FlightAware ADS-B
Thu 10:31:29 PM 33.1030 -83.9390 148° Southeast 358 412 16,800 1,571 Climbing FlightAware ADS-B
Thu 10:32:13 PM 33.0420 -83.8920 147° Southeast 370 426 17,900 1,256 Climbing FlightAware ADS-B
Thu 10:32:55 PM 32.9790 -83.8430 147° Southeast 391 450 18,600 1,605 Climbing FlightAware ADS-B
Thu 10:33:39 PM 32.9140 -83.7920 147° Southeast 383 441 20,200 1,714 Climbing FlightAware ADS-B
Thu 10:34:19 PM 32.8530 -83.7450 147° Southeast 396 456 21,000 880 Climbing FlightAware ADS-B
Thu 10:34:54 PM 32.7980 -83.7040 148° Southeast 416 479 21,300 600 Climbing FlightAware ADS-B
Thu 10:35:39 PM 32.7230 -83.6450 146° Southeast 435 501 21,800 918 Climbing FlightAware ADS-B
Thu 10:36:19 PM 32.6550 -83.5930 147° Southeast 442 509 22,600 767 Climbing FlightAware ADS-B
Thu 10:37:05 PM 32.5850 -83.5380 146° Southeast 446 513 22,900 191 Climbing FlightAware ADS-B
Thu 10:37:53 PM 32.5150 -83.4820 146° Southeast 446 513 22,900 1,326 Level FlightAware ADS-B
Thu 10:38:31 PM 32.4200 -83.4120 148° Southeast 468 539 24,800 1,680 Climbing FlightAware ADS-B
Thu 10:39:08 PM 32.3600 -83.3660 147° Southeast 468 539 25,000 141 Climbing FlightAware ADS-B
Thu 10:39:56 PM 32.2860 -83.3090 147° Southeast 468 539 25,000  Level FlightAware ADS-B
Thu 10:40:32 PM 32.2310 -83.2670 147° Southeast 468 539 25,000  Level FlightAware ADS-B
Thu 10:41:20 PM 32.1560 -83.2100 147° Southeast 468 539 25,000  Level FlightAware ADS-B
Thu 10:41:57 PM 32.0990 -83.1660 147° Southeast 468 539 25,000  Level FlightAware ADS-B
Thu 10:42:33 PM 32.0440 -83.1230 146° Southeast 468 539 25,000 2,941 Level FlightAware ADS-B
Thu 10:43:39 PM 31.8681 -82.9856 146° Southeast 471 542 30,000 2,381 Climbing Jacksonville Center
Thu 10:44:39 PM 31.7572 -82.9022 147° Southeast 471 542 30,000  Level Jacksonville Center
Thu 10:45:39 PM 31.6569 -82.8047 140° Southeast 471 542 30,000  Level Jacksonville Center
Thu 10:46:39 PM 31.5631 -82.7047 138° Southeast 466 536 30,000  Level Jacksonville Center
Thu 10:47:39 PM 31.4625 -82.6053 140° Southeast 466 536 30,000  Level Jacksonville Center
Thu 10:48:39 PM 31.3642 -82.5008 138° Southeast 471 542 30,000  Level Jacksonville Center
Thu 10:49:39 PM 31.2742 -82.4114 140° Southeast 471 542 30,000 -50 Level Jacksonville Center
Thu 10:50:39 PM 31.1775 -82.3097 138° Southeast 471 542 29,900 142 Descending Jacksonville Center
Thu 10:55:58 PM 30.6580 -81.7550 138° Southeast 479 551 30,900 266 Climbing FlightAware ADS-B
Thu 10:56:40 PM 30.5950 -81.6890 138° Southeast 477 549 31,500 786 Climbing FlightAware ADS-B
Thu 10:57:22 PM 30.5180 -81.6090 138° Southeast 474 545 32,000 333 Climbing FlightAware ADS-B
Thu 10:58:10 PM 30.4350 -81.5220 138° Southeast 477 549 32,000  Level FlightAware ADS-B
Thu 10:58:46 PM 30.3800 -81.4650 138° Southeast 479 551 32,000  Level FlightAware ADS-B
Thu 10:59:28 PM 30.3110 -81.3930 138° Southeast 480 552 32,000  Level FlightAware ADS-B
Thu 11:00:10 PM 30.2450 -81.3250 138° Southeast 481 554 32,000  Level FlightAware ADS-B
Thu 11:00:52 PM 30.1790 -81.2560 138° Southeast 482 555 32,000  Level FlightAware ADS-B
Thu 11:01:36 PM 30.1100 -81.1840 138° Southeast 482 555 32,000  Level FlightAware ADS-B
Thu 11:02:18 PM 30.0430 -81.1150 138° Southeast 484 557 32,000  Level FlightAware ADS-B
Thu 11:02:56 PM 29.9890 -81.0590 138° Southeast 484 557 32,000  Level FlightAware ADS-B
Thu 11:03:44 PM 29.9210 -80.9880 138° Southeast 484 557 32,000  Level FlightAware ADS-B
Thu 11:04:20 PM 29.8700 -80.9350 138° Southeast 484 557 32,000  Level FlightAware ADS-B
Thu 11:05:09 PM 29.8010 -80.8640 138° Southeast 484 557 32,000  Level FlightAware ADS-B
Thu 11:05:45 PM 29.7500 -80.8110 138° Southeast 484 557 32,000  Level FlightAware ADS-B
Thu 11:06:33 PM 29.6820 -80.7400 138° Southeast 484 557 32,000  Level FlightAware ADS-B
Thu 11:07:09 PM 29.6310 -80.6880 138° Southeast 484 557 32,000  Level FlightAware ADS-B
Thu 11:07:45 PM 29.5800 -80.6350 138° Southeast 484 557 32,000  Level FlightAware ADS-B
Thu 11:08:33 PM 29.5120 -80.5650 138° Southeast 484 557 32,000  Level FlightAware ADS-B
Thu 11:09:09 PM 29.4610 -80.5120 138° Southeast 484 557 32,000  Level FlightAware ADS-B
Thu 11:09:57 PM 29.3930 -80.4420 138° Southeast 484 557 32,000  Level FlightAware ADS-B
Thu 11:10:36 PM 29.2990 -80.1330 109° East 479 551 32,000  Level FlightAware ADS-B
Thu 11:11:02 PM 29.2700 -80.0880 126° Southeast 479 551 32,000  Level FlightAware ADS-B
Thu 11:11:53 PM 29.2020 -79.9860 127° Southeast 474 545 32,000  Level FlightAware ADS-B
Thu 11:12:45 PM 29.1380 -79.8880 127° Southeast 465 535 32,000  Level FlightAware ADS-B
Thu 11:13:33 PM 29.0860 -79.8070 126° Southeast 465 535 32,000  Level FlightAware ADS-B
Thu 11:14:09 PM 29.0480 -79.7460 125° Southeast 465 535 32,000  Level FlightAware ADS-B
Thu 11:17:51 PM 28.7260 -79.2780 128° Southeast 460 529 32,000  Level FlightAware ADS-B
Thu 11:18:37 PM 28.6750 -79.2010 127° Southeast 461 531 32,000  Level FlightAware ADS-B
Thu 11:19:25 PM 28.6230 -79.1220 127° Southeast 461 531 32,000  Level FlightAware ADS-B
Thu 11:20:03 PM 28.5550 -79.0270 129° Southeast 459 528 32,000  Level FlightAware ADS-B
Thu 11:20:42 PM 28.5130 -78.9630 127° Southeast 459 528 32,000  Level FlightAware ADS-B
Thu 11:21:22 PM 28.4520 -78.8780 129° Southeast 451 519 32,000  Level FlightAware ADS-B
Thu 11:22:09 PM 28.3920 -78.7890 127° Southeast 450 518 32,000  Level FlightAware ADS-B
Thu 11:22:51 PM 28.3450 -78.7210 128° Southeast 449 517 32,000  Level FlightAware ADS-B
Thu 11:23:29 PM 28.3040 -78.6610 128° Southeast 449 517 32,000  Level FlightAware ADS-B
Thu 11:24:05 PM 28.2650 -78.6040 128° Southeast 449 517 32,000  Level FlightAware ADS-B
Thu 11:24:54 PM 28.2110 -78.5270 129° Southeast 449 517 32,000  Level FlightAware ADS-B
Thu 11:25:30 PM 28.1720 -78.4700 128° Southeast 449 517 32,000  Level FlightAware ADS-B
Thu 11:26:09 PM 28.0860 -78.3490 129° Southeast 441 507 32,000  Level FlightAware ADS-B
Thu 11:26:46 PM 28.0470 -78.2920 128° Southeast 441 507 32,000  Level FlightAware ADS-B
Thu 11:27:29 PM 27.9860 -78.2060 129° Southeast 439 505 32,000  Level FlightAware ADS-B
Thu 11:28:42 PM 27.9060 -78.0910 128° Southeast 439 505 32,000  Level FlightAware ADS-B
Thu 11:29:18 PM 27.8680 -78.0350 128° Southeast 439 505 32,000  Level FlightAware ADS-B
Thu 11:30:07 PM 27.8160 -77.9600 128° Southeast 439 505 32,000  Level FlightAware ADS-B
Thu 11:30:43 PM 27.7770 -77.9040 128° Southeast 439 505 32,000  Level FlightAware ADS-B
Thu 11:31:17 PM 27.7410 -77.8520 128° Southeast 439 505 32,000  Level FlightAware ADS-B
Thu 11:32:05 PM 27.6900 -77.7780 128° Southeast 439 505 32,000  Level FlightAware ADS-B
Thu 11:32:41 PM 27.6520 -77.7230 128° Southeast 439 505 32,000  Level FlightAware ADS-B
Thu 11:33:17 PM 27.6140 -77.6680 128° Southeast 439 505 32,000  Level FlightAware ADS-B
Thu 11:34:05 PM 27.5630 -77.5940 128° Southeast 439 505 32,000  Level FlightAware ADS-B
Thu 11:34:42 PM 27.5230 -77.5370 128° Southeast 439 505 32,000  Level FlightAware ADS-B
Thu 11:35:30 PM 27.4720 -77.4640 128° Southeast 439 505 32,000  Level FlightAware ADS-B
Thu 11:36:06 PM 27.4340 -77.4090 128° Southeast 439 505 32,000  Level FlightAware ADS-B
Thu 11:36:55 PM 27.3820 -77.3340 128° Southeast 439 505 32,000  Level FlightAware ADS-B
Thu 11:37:31 PM 27.3440 -77.2780 127° Southeast 439 505 32,000  Level FlightAware ADS-B
Thu 11:38:06 PM 27.1789 -77.1481 127° Southeast 432 497 32,000  Level Miami Center
Thu 11:39:06 PM 27.1039 -77.0431 129° Southeast 427 491 32,000  Level Miami Center
Thu 11:40:04 PM 27.0308 -76.9497 131° Southeast 421 484 32,000  Level Miami Center
Thu 11:41:07 PM 26.9536 -76.8353 127° Southeast 431 496 32,000  Level Miami Center
Thu 11:42:04 PM 26.8783 -76.7306 129° Southeast 423 487 32,000  Level Miami Center
Thu 11:43:04 PM 26.8072 -76.6353 130° Southeast 427 491 32,000  Level Miami Center
Thu 11:44:04 PM 26.7294 -76.5283 129° Southeast 422 486 32,000  Level Miami Center
Thu 11:45:07 PM 26.6561 -76.4286 129° Southeast 428 493 32,000 -496 Level Miami Center
Thu 11:46:05 PM 26.5744 -76.3172 129° Southeast 433 498 31,000 -513 Descending Miami Center
Thu 11:47:04 PM 26.5028 -76.2203 130° Southeast 423 487 31,000  Level Miami Center
Thu 11:48:06 PM 26.4250 -76.1139 129° Southeast 429 494 31,000  Level Miami Center
Thu 11:49:05 PM 26.3492 -76.0122 130° Southeast 435 501 31,000  Level Miami Center
Thu 11:50:06 PM 26.2714 -75.9086 130° Southeast 428 493 31,000  Level Miami Center
Thu 11:51:04 PM 26.1869 -75.7933 129° Southeast 428 493 31,000  Level Miami Center
Thu 11:52:05 PM 26.1089 -75.6900 130° Southeast 428 493 31,000  Level Miami Center
Thu 11:53:07 PM 26.0350 -75.5889 129° Southeast 437 503 31,000  Level Miami Center
Thu 11:54:07 PM 25.9608 -75.4881 129° Southeast 427 491 31,000  Level Miami Center
Thu 11:55:05 PM 25.8803 -75.3828 130° Southeast 427 491 31,000  Level Miami Center
Thu 11:56:05 PM 25.7936 -75.2753 132° Southeast 432 497 31,000  Level Miami Center
Thu 11:57:06 PM 25.7194 -75.1794 131° Southeast 432 497 31,000  Level Miami Center
Thu 11:58:06 PM 25.6408 -75.0769 130° Southeast 433 498 31,000  Level Miami Center
Thu 11:59:04 PM 25.5622 -74.9744 130° Southeast 439 505 31,000  Level Miami Center
Fri 12:00:05 AM 25.4836 -74.8675 129° Southeast 439 505 31,000  Level Miami Center
Fri 12:01:04 AM 25.4047 -74.7631 130° Southeast 439 505 31,000  Level Miami Center
Fri 12:02:06 AM 25.3258 -74.6608 130° Southeast 439 505 31,000  Level Miami Center
Fri 12:03:04 AM 25.2492 -74.5567 129° Southeast 440 506 31,000  Level Miami Center
Fri 12:04:04 AM 25.1703 -74.4547 131° Southeast 437 503 31,000  Level Miami Center
Fri 12:05:06 AM 25.0911 -74.3531 131° Southeast 437 503 31,000  Level Miami Center
Fri 12:06:04 AM 25.0119 -74.2492 130° Southeast 442 509 31,000  Level Miami Center
Fri 12:07:06 AM 24.9308 -74.1433 130° Southeast 440 506 31,000  Level Miami Center
Fri 12:08:04 AM 24.8494 -74.0419 131° Southeast 440 506 31,000  Level Miami Center
Fri 12:09:04 AM 24.7872 -73.9589 130° Southeast 445 512 31,000  Level Miami Center
Fri 12:10:04 AM 24.7036 -73.8508 130° Southeast 440 506 31,000  Level Miami Center
Fri 12:11:04 AM 24.6219 -73.7478 131° Southeast 440 506 31,000  Level Miami Center
Fri 12:12:06 AM 24.5406 -73.6425 130° Southeast 440 506 31,000  Level Miami Center
Fri 12:13:04 AM 24.4608 -73.5419 131° Southeast 446 513 31,000  Level Miami Center
Fri 12:14:04 AM 24.3833 -73.4414 130° Southeast 446 513 31,000  Level Miami Center
Fri 12:15:05 AM 24.2994 -73.3389 132° Southeast 446 513 31,000  Level Miami Center
Fri 12:16:06 AM 24.2303 -73.2383 127° Southeast 440 506 31,000  Level Miami Center
Fri 12:17:05 AM 24.1378 -73.1339 134° Southeast 453 521 31,000  Level Miami Center
Fri 12:18:05 AM 24.0622 -73.0339 130° Southeast 448 516 31,000  Level Miami Center
Fri 12:19:07 AM 23.9864 -72.9339 130° Southeast 443 510 31,000  Level Miami Center
Fri 12:20:04 AM 23.8939 -72.8278 134° Southeast 450 518 31,000  Level Miami Center
Fri 12:21:04 AM 23.8158 -72.7281 131° Southeast 450 518 31,000  Level Miami Center
Fri 12:22:04 AM 23.7292 -72.6106 129° Southeast 450 518 31,000  Level Miami Center
Fri 12:23:04 AM 23.6447 -72.5114 133° Southeast 450 518 31,000  Level Miami Center
Fri 12:24:04 AM 23.5644 -72.4100 131° Southeast 455 524 31,000  Level Miami Center
Fri 12:25:04 AM 23.4819 -72.3064 131° Southeast 455 524 31,000  Level Miami Center
Fri 12:26:04 AM 23.3997 -72.2056 132° Southeast 455 524 31,000  Level Miami Center
Fri 12:27:04 AM 23.3169 -72.1022 131° Southeast 450 518 31,000  Level Miami Center
Fri 12:28:06 AM 23.2325 -72.0014 132° Southeast 450 518 31,000  Level Miami Center
Fri 12:29:05 AM 23.1517 -71.8961 130° Southeast 450 518 31,000  Level Miami Center
Fri 12:30:05 AM 23.0669 -71.7978 133° Southeast 450 518 31,000  Level Miami Center
Fri 12:31:04 AM 22.9861 -71.6906 129° Southeast 455 524 31,000  Level Miami Center
Fri 12:32:04 AM 22.9011 -71.5903 133° Southeast 455 524 31,000  Level Miami Center
Fri 12:33:04 AM 22.8183 -71.4878 131° Southeast 455 524 31,000  Level Miami Center
Fri 12:34:04 AM 22.7333 -71.3856 132° Southeast 455 524 31,000  Level Miami Center
Fri 12:35:05 AM 22.6503 -71.2858 132° Southeast 455 524 31,000  Level Miami Center
Fri 12:36:05 AM 22.5650 -71.1814 131° Southeast 455 524 31,000  Level Miami Center
Fri 12:37:05 AM 22.4797 -71.0775 132° Southeast 455 524 31,000  Level Miami Center
Fri 12:38:04 AM 22.3964 -70.9756 131° Southeast 455 524 31,000  Level Miami Center
Fri 12:39:06 AM 22.3306 -70.8933 131° Southeast 455 524 31,000  Level Miami Center
Fri 12:40:04 AM 22.2278 -70.7703 132° Southeast 455 524 31,000  Level Miami Center
Fri 12:41:04 AM 22.1422 -70.6692 132° Southeast 455 524 31,000  Level Miami Center
Fri 12:42:04 AM 22.0567 -70.5636 131° Southeast 455 524 31,000  Level Miami Center
Fri 12:43:04 AM 21.9711 -70.4625 132° Southeast 455 524 31,000  Level Miami Center
Fri 12:44:06 AM 21.8856 -70.3617 132° Southeast 455 524 31,000  Level Miami Center
Fri 12:45:04 AM 21.8017 -70.2586 131° Southeast 455 524 31,000  Level Miami Center
Fri 12:46:04 AM 21.7139 -70.1558 133° Southeast 455 524 31,000  Level Miami Center
Fri 12:47:06 AM 21.6392 -70.0681 132° Southeast 455 524 31,000  Level Miami Center
Fri 12:48:05 AM 21.5531 -69.9633 131° Southeast 455 524 31,000  Level Miami Center
Fri 12:49:04 AM 21.4672 -69.8608 132° Southeast 455 524 31,000  Level Miami Center
Fri 12:50:04 AM 21.3833 -69.7606 132° Southeast 455 524 31,000  Level Miami Center
Fri 12:51:06 AM 21.2956 -69.6608 133° Southeast 455 524 31,000  Level Miami Center
Fri 12:52:06 AM 21.2114 -69.5564 131° Southeast 455 524 31,000  Level Miami Center
Fri 12:58:04 AM 20.7630 -68.9150 131° Southeast 460 529 31,000  Level FlightAware ADS-B
Fri 12:58:53 AM 20.7040 -68.8450 132° Southeast 460 529 31,000  Level FlightAware ADS-B
Fri 12:59:31 AM 20.6200 -68.7880 148° Southeast 461 531 31,000  Level FlightAware ADS-B
Fri 01:00:29 AM 20.5330 -68.7090 140° Southeast 461 531 31,000  Level FlightAware ADS-B
Fri 01:01:13 AM 20.4530 -68.6360 139° Southeast 461 531 31,000  Level FlightAware ADS-B
Fri 01:02:07 AM 20.3710 -68.5600 139° Southeast 461 531 31,000  Level FlightAware ADS-B
Fri 01:02:54 AM 20.2860 -68.4880 142° Southeast 462 532 31,000  Level FlightAware ADS-B
Fri 01:03:30 AM 20.2270 -68.4370 141° Southeast 461 531 31,000  Level FlightAware ADS-B
Fri 01:04:11 AM 20.1580 -68.3770 141° Southeast 463 533 31,000  Level FlightAware ADS-B
Fri 01:04:53 AM 20.0880 -68.3160 141° Southeast 462 532 31,000  Level FlightAware ADS-B
Fri 01:05:28 AM 20.0300 -68.2660 141° Southeast 463 533 31,000  Level FlightAware ADS-B
Fri 01:06:10 AM 19.9610 -68.2060 141° Southeast 462 532 31,000  Level FlightAware ADS-B
Fri 01:06:52 AM 19.8910 -68.1450 141° Southeast 462 532 31,000  Level FlightAware ADS-B
Fri 01:07:32 AM 19.8240 -68.0880 141° Southeast 461 531 31,000  Level FlightAware ADS-B
Fri 01:08:05 AM 19.7690 -68.0410 141° Southeast 461 531 31,000  Level FlightAware ADS-B
Fri 01:08:50 AM 19.6960 -67.9770 140° Southeast 461 531 31,000  Level FlightAware ADS-B
Fri 01:09:31 AM 19.6260 -67.9180 142° Southeast 462 532 31,000  Level FlightAware ADS-B
Fri 01:10:14 AM 19.5560 -67.8570 141° Southeast 461 531 31,000  Level FlightAware ADS-B
Fri 01:10:54 AM 19.4890 -67.8000 141° Southeast 461 531 31,000  Level FlightAware ADS-B
Fri 01:11:37 AM 19.4170 -67.7380 141° Southeast 461 531 31,000  Level FlightAware ADS-B
Fri 01:12:19 AM 19.3490 -67.6800 141° Southeast 460 529 31,000  Level FlightAware ADS-B
Fri 01:12:54 AM 19.2900 -67.6300 141° Southeast 460 529 31,000  Level FlightAware ADS-B
Fri 01:13:34 AM 19.2240 -67.5730 141° Southeast 460 529 31,000  Level FlightAware ADS-B
Fri 01:14:15 AM 19.1550 -67.5140 141° Southeast 460 529 31,000  Level FlightAware ADS-B
Fri 01:14:53 AM 19.0910 -67.4600 141° Southeast 459 528 31,000  Level FlightAware ADS-B
Fri 01:15:48 AM 19.0010 -67.3830 141° Southeast 460 529 31,000  Level FlightAware ADS-B
Fri 01:16:29 AM 18.9320 -67.3240 141° Southeast 461 531 31,000 300 Level FlightAware ADS-B
Fri 01:17:08 AM 18.8680 -67.2690 141° Southeast 460 529 31,400 815 Climbing FlightAware ADS-B
Fri 01:17:50 AM 18.7990 -67.2100 141° Southeast 460 529 32,100 951 Climbing FlightAware ADS-B
Fri 01:18:30 AM 18.7320 -67.1540 142° Southeast 460 529 32,700 675 Climbing FlightAware ADS-B
Fri 01:19:10 AM 18.6660 -67.0980 141° Southeast 461 531 33,000 225 Climbing FlightAware ADS-B
Fri 01:19:50 AM 18.5990 -67.0400 141° Southeast 459 528 33,000  Level FlightAware ADS-B
Fri 01:20:30 AM 18.5330 -66.9840 141° Southeast 458 527 33,000  Level FlightAware ADS-B
Fri 01:21:11 AM 18.4640 -66.9250 141° Southeast 458 527 33,000  Level FlightAware ADS-B
Fri 01:21:56 AM 18.3910 -66.8640 142° Southeast 458 527 33,000  Level FlightAware ADS-B
Fri 01:22:38 AM 18.3210 -66.8040 141° Southeast 457 526 33,000  Level FlightAware ADS-B
Fri 01:23:19 AM 18.2530 -66.7460 141° Southeast 457 526 33,000  Level FlightAware ADS-B
Fri 01:24:02 AM 18.1830 -66.6860 141° Southeast 457 526 33,000  Level FlightAware ADS-B
Fri 01:24:42 AM 18.1180 -66.6310 141° Southeast 457 526 33,000  Level FlightAware ADS-B
Fri 01:25:25 AM 18.0460 -66.5710 142° Southeast 458 527 33,000  Level FlightAware ADS-B
Fri 01:26:10 AM 17.9730 -66.5090 141° Southeast 458 527 33,000  Level FlightAware ADS-B
Fri 01:26:49 AM 17.9060 -66.4520 141° Southeast 459 528 33,000  Level FlightAware ADS-B
Fri 01:27:30 AM 17.8390 -66.3960 141° Southeast 460 529 33,000  Level FlightAware ADS-B
Fri 01:28:14 AM 17.7660 -66.3330 141° Southeast 460 529 33,000  Level FlightAware ADS-B
Fri 01:28:56 AM 17.6970 -66.2750 141° Southeast 461 531 33,000  Level FlightAware ADS-B
Fri 01:29:38 AM 17.6260 -66.2150 141° Southeast 462 532 33,000  Level FlightAware ADS-B
Fri 01:30:19 AM 17.5580 -66.1580 141° Southeast 462 532 33,000  Level FlightAware ADS-B
Fri 01:30:52 AM 17.5020 -66.1110 141° Southeast 463 533 33,000  Level FlightAware ADS-B
Fri 01:31:32 AM 17.4360 -66.0550 141° Southeast 463 533 33,000  Level FlightAware ADS-B
Fri 01:32:20 AM 17.3570 -65.9880 141° Southeast 464 534 33,000  Level FlightAware ADS-B
Fri 01:32:58 AM 17.2990 -65.9400 142° Southeast 464 534 33,000  Level FlightAware ADS-B
Fri 01:33:47 AM 17.2180 -65.8720 141° Southeast 464 534 33,000  Level FlightAware ADS-B
Fri 01:34:43 AM 17.1250 -65.7930 141° Southeast 465 535 33,000  Level FlightAware ADS-B
Fri 01:35:14 AM 17.0630 -65.7410 141° Southeast 465 535 33,000  Level FlightAware ADS-B
Fri 01:36:02 AM 16.9830 -65.6750 142° Southeast 466 536 33,000  Level FlightAware ADS-B
Fri 01:36:45 AM 16.9090 -65.6120 141° Southeast 468 539 33,000  Level FlightAware ADS-B
Fri 01:37:21 AM 16.8500 -65.5630 142° Southeast 476 548 33,000  Level FlightAware ADS-B
Fri 01:38:09 AM 16.7650 -65.4920 141° Southeast 483 556 33,000  Level FlightAware ADS-B
Fri 01:38:53 AM 16.6880 -65.4270 141° Southeast 484 557 33,000  Level FlightAware ADS-B
Fri 01:39:27 AM 16.6380 -65.3850 141° Southeast 484 557 33,000  Level FlightAware ADS-B
Fri 01:40:07 AM 16.5590 -65.3190 141° Southeast 483 556 33,000  Level FlightAware ADS-B
Fri 01:40:45 AM 16.4990 -65.2690 141° Southeast 482 555 33,000  Level FlightAware ADS-B
Fri 01:41:32 AM 16.4120 -65.1960 141° Southeast 483 556 33,000  Level FlightAware ADS-B
Fri 01:42:06 AM 16.3580 -65.1510 141° Southeast 482 555 33,000  Level FlightAware ADS-B
Fri 01:42:52 AM 16.2910 -65.0940 141° Southeast 482 555 33,000  Level FlightAware ADS-B
Fri 01:43:29 AM 16.2360 -65.0480 141° Southeast 482 555 33,000  Level FlightAware ADS-B
Fri 01:44:17 AM 16.1650 -64.9880 141° Southeast 482 555 33,000  Level FlightAware ADS-B
Fri 01:44:53 AM 16.1120 -64.9440 141° Southeast 482 555 33,000  Level FlightAware ADS-B
Fri 01:45:39 AM 16.0450 -64.8860 140° Southeast 482 555 33,000  Level FlightAware ADS-B
Fri 01:46:15 AM 15.9920 -64.8420 141° Southeast 482 555 33,000  Level FlightAware ADS-B
Fri 01:47:03 AM 15.9210 -64.7820 141° Southeast 482 555 33,000  Level FlightAware ADS-B
Fri 01:47:41 AM 15.8650 -64.7350 141° Southeast 482 555 33,000  Level FlightAware ADS-B
Fri 01:48:28 AM 15.7960 -64.6770 141° Southeast 482 555 33,000  Level FlightAware ADS-B
Fri 01:49:04 AM 15.7430 -64.6320 141° Southeast 482 555 33,000  Level FlightAware ADS-B
Fri 01:49:52 AM 15.6720 -64.5730 141° Southeast 482 555 33,000  Level FlightAware ADS-B
Fri 01:50:29 AM 15.6180 -64.5270 141° Southeast 482 555 33,000  Level FlightAware ADS-B
Fri 01:51:17 AM 15.5470 -64.4670 141° Southeast 482 555 33,000  Level FlightAware ADS-B
Fri 01:56:00 AM 15.0264 -64.1692 136° Southeast  Level Estimated
Fri 01:57:00 AM 14.9160 -64.1063 151° Southeast  Level Estimated
Fri 01:58:00 AM 14.8060 -64.0425 151° Southeast  Level FlightAware Approximate
Fri 01:59:00 AM 14.6960 -63.9788 151° Southeast  Level FlightAware Approximate
Fri 02:00:00 AM 14.5861 -63.9151 151° Southeast  Level FlightAware Approximate
Fri 02:01:00 AM 14.4761 -63.8515 151° Southeast  Level FlightAware Approximate
Fri 02:02:00 AM 14.3660 -63.7880 151° Southeast  Level FlightAware Approximate
Fri 02:03:00 AM 14.2560 -63.7246 151° Southeast  Level FlightAware Approximate
Fri 02:04:00 AM 14.1459 -63.6612 151° Southeast  Level FlightAware Approximate
Fri 02:05:00 AM 14.0358 -63.5978 151° Southeast  Level FlightAware Approximate
Fri 02:06:00 AM 13.9257 -63.5345 151° Southeast  Level FlightAware Approximate
Fri 02:07:00 AM 13.8156 -63.4713 151° Southeast  Level FlightAware Approximate
Fri 02:08:00 AM 13.7055 -63.4082 151° Southeast  Level FlightAware Approximate
Fri 02:09:00 AM 13.5954 -63.3451 151° Southeast  Level FlightAware Approximate
Fri 02:10:00 AM 13.4852 -63.2820 151° Southeast  Level FlightAware Approximate
Fri 02:11:00 AM 13.3745 -63.2200 151° Southeast  Level Estimated
Fri 02:12:00 AM 13.2639 -63.1579 151° Southeast  Level FlightAware Approximate
Fri 02:13:00 AM 13.1533 -63.0958 151° Southeast  Level FlightAware Approximate
Fri 02:14:00 AM 13.0426 -63.0338 151° Southeast  Level FlightAware Approximate
Fri 02:15:00 AM 12.9319 -62.9719 151° Southeast  Level FlightAware Approximate
Fri 02:15:20 AM 12.8860 -62.3430 151° Southeast 492 566 33,000  Level FlightAware ADS-B
Fri 02:16:14 AM 12.7990 -62.2750 143° Southeast 492 566 33,000  Level FlightAware ADS-B
Fri 02:16:50 AM 12.7440 -62.2310 142° Southeast 492 566 33,000  Level FlightAware ADS-B
Fri 02:17:38 AM 12.6710 -62.1720 142° Southeast 492 566 33,000  Level FlightAware ADS-B
Fri 02:18:15 AM 12.6150 -62.1270 142° Southeast 492 566 33,000  Level FlightAware ADS-B
Fri 02:18:51 AM 12.5600 -62.0830 142° Southeast 492 566 33,000  Level FlightAware ADS-B
Fri 02:19:38 AM 12.4880 -62.0260 142° Southeast 492 566 33,000  Level FlightAware ADS-B
Fri 02:20:14 AM 12.4330 -61.9820 142° Southeast 492 566 33,000  Level FlightAware ADS-B
Fri 02:21:02 AM 12.3600 -61.9240 142° Southeast 492 566 33,000  Level FlightAware ADS-B
Fri 02:21:38 AM 12.3050 -61.8800 142° Southeast 492 566 33,000  Level FlightAware ADS-B
Fri 02:22:15 AM 12.2490 -61.8350 142° Southeast 492 566 33,000  Level FlightAware ADS-B
Fri 02:23:03 AM 12.1760 -61.7760 142° Southeast 492 566 33,000  Level FlightAware ADS-B
Fri 02:24:23 AM 11.8590 -61.5490 145° Southeast 478 550 33,000  Level FlightAware ADS-B
Fri 02:24:59 AM 11.8050 -61.5080 143° Southeast 478 550 33,000  Level FlightAware ADS-B
Fri 02:25:47 AM 11.7330 -61.4520 143° Southeast 478 550 33,000  Level FlightAware ADS-B
Fri 02:26:23 AM 11.6790 -61.4110 143° Southeast 478 550 33,000  Level FlightAware ADS-B
Fri 02:27:08 AM 11.9170 -61.5950 323° Northwest 476 548 33,000  Level FlightAware ADS-B
Fri 02:28:08 AM 11.4750 -61.2560 143° Southeast 476 548 33,000  Level FlightAware ADS-B
Fri 02:28:44 AM 11.4210 -61.2150 143° Southeast 476 548 33,000  Level FlightAware ADS-B
Fri 02:29:20 AM 11.3680 -61.1730 142° Southeast 476 548 33,000  Level FlightAware ADS-B
Fri 02:30:19 AM 11.2790 -61.1060 144° Southeast 476 548 33,000  Level FlightAware ADS-B
Fri 02:30:55 AM 11.2250 -61.0640 143° Southeast 476 548 33,000  Level FlightAware ADS-B
Fri 02:31:32 AM 11.1700 -61.0220 143° Southeast 476 548 33,000  Level FlightAware ADS-B
Fri 02:32:21 AM 11.0970 -60.9650 143° Southeast 476 548 33,000  Level FlightAware ADS-B
Fri 02:32:57 AM 11.0430 -60.9240 143° Southeast 476 548 33,000  Level FlightAware ADS-B
Fri 02:33:58 AM 10.9520 -60.8540 143° Southeast 476 548 33,000  Level FlightAware ADS-B
Fri 02:34:30 AM 10.7840 -60.7320 144° Southeast 33,000  Level FlightAware ADS-B
Fri 02:37:00 AM 10.5114 -60.5912 153° Southeast  Level Estimated
Fri 02:38:00 AM 10.4023 -60.5349 153° Southeast  Level Estimated
Fri 02:38:53 AM 10.3300 -60.3890 153° Southeast 33,000  Level FlightAware ADS-B
Fri 02:41:00 AM 10.0988 -60.2707 153° Southeast  Level Estimated
Fri 02:42:00 AM 9.9896 -60.2149 153° Southeast  Level Estimated
Fri 02:42:58 AM 9.9220 -60.0810 153° Southeast 459 528 33,000  Level FlightAware ADS-B
Fri 02:43:00 AM 9.8803 -60.1591 153° Southeast  Level Estimated
Fri 02:43:34 AM 9.8700 -60.0420 144° Southeast 459 528 33,000  Level FlightAware ADS-B
Fri 02:44:22 AM 9.8010 -59.9890 143° Southeast 459 528 33,000  Level FlightAware ADS-B
Fri 02:44:47 AM 9.7650 -59.9610 143° Southeast 459 528 33,000  Level FlightAware ADS-B
Fri 02:46:15 AM 9.6380 -59.8640 143° Southeast 459 528 33,000  Level FlightAware ADS-B
Fri 02:47:16 AM 9.5500 -59.7970 143° Southeast 459 528 33,000  Level FlightAware ADS-B
Fri 02:47:52 AM 9.4980 -59.7570 143° Southeast 459 528 33,000  Level FlightAware ADS-B
Fri 02:48:40 AM 9.4290 -59.7050 143° Southeast 459 528 33,000  Level FlightAware ADS-B
Fri 02:49:16 AM 9.3770 -59.6650 143° Southeast 459 528 33,000  Level FlightAware ADS-B
Fri 02:49:52 AM 9.3250 -59.6250 143° Southeast 459 528 33,000  Level FlightAware ADS-B
Fri 02:50:52 AM 9.2390 -59.5590 143° Southeast 459 528 33,000  Level FlightAware ADS-B
Fri 02:51:28 AM 9.1870 -59.5200 143° Southeast 459 528 33,000  Level FlightAware ADS-B
Fri 02:52:16 AM 9.1180 -59.4670 143° Southeast 459 528 33,000  Level FlightAware ADS-B
Fri 02:54:00 AM 8.9278 -59.3722 154° Southeast  Level Estimated
Fri 02:55:00 AM 8.8181 -59.3176 154° Southeast  Level Estimated
Fri 02:56:00 AM 8.7084 -59.2630 154° Southeast  Level Estimated
Fri 02:57:00 AM 8.5986 -59.2084 154° Southeast  Level Estimated
Fri 02:58:00 AM 8.4888 -59.1538 154° Southeast  Level Estimated
Fri 02:59:00 AM 8.3791 -59.0993 154° Southeast  Level Estimated
Fri 03:00:00 AM 8.2693 -59.0448 154° Southeast  Level Estimated
Fri 03:01:00 AM 8.1595 -58.9904 154° Southeast  Level Estimated
Fri 03:02:00 AM 8.0498 -58.9360 154° Southeast  Level Estimated
Fri 03:03:00 AM 7.9400 -58.8816 154° Southeast  Level Estimated
Fri 03:04:00 AM 7.8302 -58.8272 154° Southeast  Level Estimated
Fri 03:05:00 AM 7.7204 -58.7729 154° Southeast  Level Estimated
Fri 03:06:00 AM 7.6106 -58.7186 154° Southeast  Level Estimated
Fri 03:07:00 AM 7.5007 -58.6643 154° Southeast  Level Estimated
Fri 03:08:00 AM 7.3909 -58.6101 154° Southeast  Level Estimated
Fri 03:09:00 AM 7.2811 -58.5558 154° Southeast  Level Estimated
Fri 03:10:00 AM 7.1712 -58.5016 154° Southeast  Level Estimated
Fri 03:11:00 AM 7.0614 -58.4475 154° Southeast  Level Estimated
Fri 03:12:00 AM 6.9516 -58.3933 154° Southeast  Level Estimated
Fri 03:13:00 AM 6.8417 -58.3392 154° Southeast  Level Estimated
Fri 03:14:00 AM 6.7318 -58.2851 154° Southeast  Level Estimated
Fri 03:15:00 AM 6.6220 -58.2310 154° Southeast  Level Estimated
Fri 03:16:00 AM 6.5121 -58.1770 154° Southeast  Level Estimated
Fri 03:17:00 AM 6.4022 -58.1230 154° Southeast  Level Estimated
Fri 03:18:00 AM 6.2923 -58.0690 154° Southeast  Level Estimated
Fri 03:19:00 AM 6.1824 -58.0150 154° Southeast  Level Estimated
Fri 03:20:00 AM 6.0725 -57.9610 154° Southeast  Level Estimated
Fri 03:21:00 AM 5.9626 -57.9071 154° Southeast  Level Estimated
Fri 03:22:00 AM 5.8527 -57.8532 154° Southeast  Level Estimated
Fri 03:23:00 AM 5.7428 -57.7993 154° Southeast  Level Estimated
Fri 03:24:00 AM 5.6329 -57.7454 154° Southeast  Level Estimated
Fri 03:25:00 AM 5.5230 -57.6916 154° Southeast  Level Estimated
Fri 03:26:00 AM 5.4131 -57.6377 154° Southeast  Level Estimated
Fri 03:27:00 AM 5.3031 -57.5839 154° Southeast  Level Estimated
Fri 03:28:00 AM 5.1932 -57.5302 154° Southeast  Level Estimated
Fri 03:29:00 AM 5.0832 -57.4764 154° Southeast  Level Estimated
Fri 03:30:00 AM 4.9733 -57.4226 154° Southeast  Level Estimated
Fri 03:31:00 AM 4.8633 -57.3689 154° Southeast  Level Estimated
Fri 03:32:00 AM 4.7534 -57.3152 154° Southeast  Level Estimated
Fri 03:33:00 AM 4.6434 -57.2615 154° Southeast  Level Estimated
Fri 03:34:00 AM 4.5335 -57.2078 154° Southeast  Level Estimated
Fri 03:35:00 AM 4.4235 -57.1541 154° Southeast  Level Estimated
Fri 03:36:00 AM 4.3135 -57.1005 154° Southeast  Level Estimated
Fri 03:37:00 AM 4.2036 -57.0468 154° Southeast  Level Estimated
Fri 03:38:00 AM 4.0936 -56.9932 154° Southeast  Level Estimated
Fri 03:39:00 AM 3.9836 -56.9396 154° Southeast  Level Estimated
Fri 03:40:00 AM 3.8736 -56.8860 154° Southeast  Level Estimated
Fri 03:41:00 AM 3.7636 -56.8324 154° Southeast  Level Estimated
Fri 03:42:00 AM 3.6536 -56.7789 154° Southeast  Level Estimated
Fri 03:43:00 AM 3.5436 -56.7253 154° Southeast  Level Estimated
Fri 03:44:00 AM 3.4337 -56.6718 154° Southeast  Level Estimated
Fri 03:45:00 AM 3.3236 -56.6183 154° Southeast  Level Estimated
Fri 03:46:00 AM 3.2136 -56.5648 154° Southeast  Level Estimated
Fri 03:47:00 AM 3.1036 -56.5112 154° Southeast  Level Estimated
Fri 03:48:00 AM 2.9936 -56.4578 154° Southeast  Level Estimated
Fri 03:49:00 AM 2.8836 -56.4043 154° Southeast  Level Estimated
Fri 03:50:00 AM 2.7736 -56.3508 154° Southeast  Level Estimated
Fri 03:51:00 AM 2.6628 -56.2970 154° Southeast  Level Estimated
Fri 03:52:00 AM 2.5520 -56.2431 154° Southeast  Level Estimated
Fri 03:53:00 AM 2.4412 -56.1893 154° Southeast  Level Estimated
Fri 03:54:00 AM 2.3304 -56.1355 154° Southeast  Level Estimated
Fri 03:55:00 AM 2.2196 -56.0817 154° Southeast  Level Estimated
Fri 03:56:00 AM 2.1088 -56.0279 154° Southeast  Level Estimated
Fri 03:57:00 AM 1.9980 -55.9741 154° Southeast  Level Estimated
Fri 03:58:00 AM 1.8872 -55.9203 154° Southeast  Level Estimated
Fri 03:59:00 AM 1.7764 -55.8666 154° Southeast  Level Estimated
Fri 04:00:00 AM 1.6655 -55.8128 154° Southeast  Level Estimated
Fri 04:01:00 AM 1.5547 -55.7590 154° Southeast  Level Estimated
Fri 04:02:00 AM 1.4439 -55.7053 154° Southeast  Level Estimated
Fri 04:03:00 AM 1.3331 -55.6515 154° Southeast  Level Estimated
Fri 04:04:00 AM 1.2223 -55.5978 154° Southeast  Level Estimated
Fri 04:05:00 AM 1.1114 -55.5440 154° Southeast  Level Estimated
Fri 04:06:00 AM 1.0006 -55.4903 154° Southeast  Level Estimated
Fri 04:07:00 AM 0.8898 -55.4366 154° Southeast  Level Estimated
Fri 04:08:00 AM 0.7790 -55.3828 154° Southeast  Level Estimated
Fri 04:09:00 AM 0.6682 -55.3291 154° Southeast  Level Estimated
Fri 04:10:00 AM 0.5573 -55.2754 154° Southeast  Level Estimated
Fri 04:11:00 AM 0.4465 -55.2217 154° Southeast  Level Estimated
Fri 04:12:00 AM 0.3357 -55.1679 154° Southeast  Level Estimated
Fri 04:13:00 AM 0.2248 -55.1142 154° Southeast  Level Estimated
Fri 04:14:00 AM 0.1140 -55.0605 154° Southeast  Level Estimated
Fri 04:15:00 AM 0.0032 -55.0068 154° Southeast  Level Estimated
Fri 04:16:00 AM -0.1077 -54.9531 154° Southeast  Level Estimated
Fri 04:17:00 AM -0.2185 -54.8993 154° Southeast  Level Estimated
Fri 04:18:00 AM -0.3293 -54.8456 154° Southeast  Level Estimated
Fri 04:19:00 AM -0.4401 -54.7919 154° Southeast  Level Estimated
Fri 04:20:00 AM -0.5510 -54.7382 154° Southeast  Level Estimated
Fri 04:21:00 AM -0.6618 -54.6845 154° Southeast  Level Estimated
Fri 04:22:00 AM -0.7726 -54.6307 154° Southeast  Level Estimated
Fri 04:23:00 AM -0.8835 -54.5770 154° Southeast  Level Estimated
Fri 04:24:00 AM -0.9943 -54.5233 154° Southeast  Level Estimated
Fri 04:25:00 AM -1.1051 -54.4695 154° Southeast  Level Estimated
Fri 04:26:00 AM -1.2159 -54.4158 154° Southeast  Level Estimated
Fri 04:27:00 AM -1.3267 -54.3620 154° Southeast  Level Estimated
Fri 04:28:00 AM -1.4376 -54.3083 154° Southeast  Level Estimated
Fri 04:29:00 AM -1.5484 -54.2545 154° Southeast  Level Estimated
Fri 04:30:00 AM -1.6592 -54.2008 154° Southeast  Level Estimated
Fri 04:31:00 AM -1.7700 -54.1470 154° Southeast  Level Estimated
Fri 04:32:00 AM -1.8808 -54.0932 154° Southeast  Level Estimated
Fri 04:33:00 AM -1.9916 -54.0395 154° Southeast  Level Estimated
Fri 04:34:00 AM -2.1024 -53.9857 154° Southeast  Level Estimated
Fri 04:35:00 AM -2.2133 -53.9319 154° Southeast  Level Estimated
Fri 04:36:00 AM -2.3241 -53.8781 154° Southeast  Level Estimated
Fri 04:37:00 AM -2.4349 -53.8243 154° Southeast  Level Estimated
Fri 04:38:00 AM -2.5457 -53.7705 154° Southeast  Level Estimated
Fri 04:39:00 AM -2.6565 -53.7166 154° Southeast  Level Estimated
Fri 04:40:00 AM -2.7673 -53.6628 154° Southeast  Level Estimated
Fri 04:41:00 AM -2.8781 -53.6089 154° Southeast  Level Estimated
Fri 04:42:00 AM -2.9889 -53.5551 154° Southeast  Level Estimated
Fri 04:43:00 AM -3.0996 -53.5012 154° Southeast  Level Estimated
Fri 04:44:00 AM -3.2104 -53.4473 154° Southeast  Level Estimated
Fri 04:45:00 AM -3.3212 -53.3934 154° Southeast  Level Estimated
Fri 04:46:00 AM -3.4320 -53.3395 154° Southeast  Level Estimated
Fri 04:47:00 AM -3.5428 -53.2856 154° Southeast  Level Estimated
Fri 04:48:00 AM -3.6536 -53.2317 154° Southeast  Level Estimated
Fri 04:49:00 AM -3.7643 -53.1777 154° Southeast  Level Estimated
Fri 04:50:00 AM -3.8751 -53.1238 154° Southeast  Level Estimated
Fri 04:51:00 AM -3.9859 -53.0698 154° Southeast  Level Estimated
Fri 04:52:00 AM -4.0966 -53.0158 154° Southeast  Level Estimated
Fri 04:53:00 AM -4.2074 -52.9618 154° Southeast  Level Estimated
Fri 04:54:00 AM -4.3181 -52.9078 154° Southeast  Level Estimated
Fri 04:55:00 AM -4.4289 -52.8538 154° Southeast  Level Estimated
Fri 04:56:00 AM -4.5396 -52.7997 154° Southeast  Level Estimated
Fri 04:57:00 AM -4.6504 -52.7456 154° Southeast  Level Estimated
Fri 04:58:00 AM -4.7611 -52.6916 154° Southeast  Level Estimated
Fri 04:59:00 AM -4.8719 -52.6375 154° Southeast  Level Estimated
Fri 05:00:00 AM -4.9826 -52.5833 154° Southeast  Level Estimated
Fri 05:01:00 AM -5.0933 -52.5292 154° Southeast  Level Estimated
Fri 05:02:00 AM -5.2040 -52.4751 154° Southeast  Level Estimated
Fri 05:03:00 AM -5.3148 -52.4209 154° Southeast  Level Estimated
Fri 05:04:00 AM -5.4255 -52.3667 154° Southeast  Level Estimated
Fri 05:05:00 AM -5.5362 -52.3125 154° Southeast  Level Estimated
Fri 05:06:00 AM -5.6481 -52.2577 154° Southeast  Level Estimated
Fri 05:07:00 AM -5.7600 -52.2028 154° Southeast  Level Estimated
Fri 05:08:00 AM -5.8718 -52.1480 154° Southeast  Level Estimated
Fri 05:09:00 AM -5.9837 -52.0931 154° Southeast  Level Estimated
Fri 05:10:00 AM -6.0956 -52.0382 154° Southeast  Level Estimated
Fri 05:11:00 AM -6.2074 -51.9832 154° Southeast  Level Estimated
Fri 05:12:00 AM -6.3193 -51.9283 154° Southeast  Level Estimated
Fri 05:13:00 AM -6.4312 -51.8733 154° Southeast  Level Estimated
Fri 05:14:00 AM -6.5430 -51.8183 154° Southeast  Level Estimated
Fri 05:15:00 AM -6.6549 -51.7633 154° Southeast  Level Estimated
Fri 05:16:00 AM -6.7667 -51.7082 154° Southeast  Level Estimated
Fri 05:17:00 AM -6.8785 -51.6532 154° Southeast  Level Estimated
Fri 05:18:00 AM -6.9904 -51.5981 154° Southeast  Level Estimated
Fri 05:19:00 AM -7.1022 -51.5429 154° Southeast  Level Estimated
Fri 05:20:00 AM -7.2140 -51.4878 154° Southeast  Level Estimated
Fri 05:21:00 AM -7.3258 -51.4326 154° Southeast  Level Estimated
Fri 05:22:00 AM -7.4376 -51.3774 154° Southeast  Level Estimated
Fri 05:23:00 AM -7.5494 -51.3222 154° Southeast  Level Estimated
Fri 05:24:00 AM -7.6612 -51.2669 154° Southeast  Level Estimated
Fri 05:25:00 AM -7.7730 -51.2116 154° Southeast  Level Estimated
Fri 05:26:00 AM -7.8847 -51.1563 154° Southeast  Level Estimated
Fri 05:27:00 AM -7.9965 -51.1009 154° Southeast  Level Estimated
Fri 05:28:00 AM -8.1082 -51.0456 154° Southeast  Level Estimated
Fri 05:29:00 AM -8.2200 -50.9901 154° Southeast  Level Estimated
Fri 05:30:00 AM -8.3317 -50.9347 154° Southeast  Level Estimated
Fri 05:31:00 AM -8.4435 -50.8792 154° Southeast  Level Estimated
Fri 05:32:00 AM -8.5552 -50.8237 154° Southeast  Level Estimated
Fri 05:32:25 AM -10.1290 -50.5940 154° Southeast 454 522 33,000  Level FlightAware ADS-B
Fri 05:33:00 AM -8.6669 -50.7682 154° Southeast  Level Estimated
Fri 05:33:06 AM -10.1440 -50.5880 159° South 454 522 33,000  Level FlightAware ADS-B
Fri 05:33:55 AM -10.2250 -50.5530 157° South 454 522 33,000  Level FlightAware ADS-B
Fri 05:34:31 AM -10.2840 -50.5280 157° South 454 522 33,000  Level FlightAware ADS-B
Fri 05:34:44 AM -10.0830 -50.6140 337° Northwest 33,000  Level FlightAware ADS-B
Fri 05:36:13 AM -10.5820 -50.4010 157° South 456 525 33,000  Level FlightAware ADS-B
Fri 05:36:54 AM -10.6480 -50.3730 157° South 456 525 33,000  Level FlightAware ADS-B
Fri 05:37:50 AM -10.7630 -50.3240 157° South 456 525 33,000  Level FlightAware ADS-B
Fri 05:38:31 AM -10.7630 -50.3240 157° South 455 524 33,000  Level FlightAware ADS-B
Fri 05:39:19 AM -10.7660 -50.3220 147° Southeast 454 522 33,000  Level FlightAware ADS-B
Fri 05:39:58 AM -11.0190 -50.2140 157° South 453 521 33,000  Level FlightAware ADS-B
Fri 05:40:52 AM -11.1220 -50.1700 157° South 454 522 33,000  Level FlightAware ADS-B
Fri 05:41:28 AM -11.1900 -50.1400 157° South 453 521 33,000  Level FlightAware ADS-B
Fri 05:42:54 AM -11.3500 -50.0710 157° South 452 520 33,000  Level FlightAware ADS-B
Fri 05:43:40 AM -11.4500 -50.0280 157° South 452 520 33,000  Level FlightAware ADS-B
Fri 05:44:25 AM -11.5330 -49.9920 157° South 452 520 33,000  Level FlightAware ADS-B
Fri 05:45:01 AM -11.6060 -49.9610 157° South 452 520 33,000  Level FlightAware ADS-B
Fri 05:45:41 AM -11.6790 -49.9290 157° South 452 520 33,000  Level FlightAware ADS-B
Fri 05:46:21 AM -11.7590 -49.8940 157° South 451 519 33,000  Level FlightAware ADS-B
Fri 05:47:01 AM -11.8310 -49.8620 156° South 450 518 33,000  Level FlightAware ADS-B
Fri 05:47:36 AM -11.9030 -49.8310 157° South 449 517 33,000  Level FlightAware ADS-B
Fri 05:48:21 AM -11.9910 -49.7930 157° South 448 516 33,000  Level FlightAware ADS-B
Fri 05:49:07 AM -12.0420 -49.7700 156° South 448 516 33,000  Level FlightAware ADS-B
Fri 05:49:41 AM -12.0970 -49.7450 156° South 448 516 33,000  Level FlightAware ADS-B
Fri 05:50:29 AM -12.1000 -49.7440 162° South 448 516 33,000  Level FlightAware ADS-B
Fri 05:51:27 AM -12.3380 -49.6400 157° South 449 517 33,000  Level FlightAware ADS-B
Fri 05:52:03 AM -12.3960 -49.6140 156° South 449 517 33,000  Level FlightAware ADS-B
Fri 05:52:49 AM -12.3330 -49.6420 337° Northwest 449 517 33,000  Level FlightAware ADS-B
Fri 05:53:29 AM -12.5740 -49.5370 157° South 449 517 33,000  Level FlightAware ADS-B
Fri 05:54:17 AM -12.6510 -49.5020 156° South 449 517 33,000  Level FlightAware ADS-B
Fri 05:54:51 AM -12.7060 -49.4770 156° South 449 517 33,000  Level FlightAware ADS-B
Fri 05:55:32 AM -12.5330 -49.5550 336° Northwest 33,000  Level FlightAware ADS-B
Fri 05:58:00 AM -12.8004 -49.4003 151° Southeast  Level Estimated
Fri 05:59:00 AM -12.9088 -49.3374 151° Southeast  Level Estimated
Fri 06:00:00 AM -13.0171 -49.2746 151° Southeast  Level Estimated
Fri 06:01:00 AM -13.1255 -49.2116 151° Southeast  Level Estimated
Fri 06:02:00 AM -13.2338 -49.1486 150° Southeast  Level Estimated
Fri 06:03:00 AM -13.3421 -49.0856 150° Southeast  Level Estimated
Fri 06:03:04 AM -13.6620 -49.0490 150° Southeast 434 499 33,000  Level FlightAware ADS-B
Fri 06:03:44 AM -13.7370 -49.0150 156° South 432 497 33,000  Level FlightAware ADS-B
Fri 06:04:54 AM -13.8620 -48.9580 156° South 432 497 33,000  Level FlightAware ADS-B
Fri 06:05:39 AM -13.9400 -48.9210 155° Southeast 431 496 33,000  Level FlightAware ADS-B
Fri 06:06:12 AM -13.9960 -48.8970 157° South 431 496 33,000  Level FlightAware ADS-B
Fri 06:06:59 AM -14.0920 -48.8530 156° South 431 496 33,000  Level FlightAware ADS-B
Fri 06:07:44 AM -14.1710 -48.8170 156° South 431 496 33,000  Level FlightAware ADS-B
Fri 06:08:24 AM -14.2490 -48.7810 156° South 429 494 33,000  Level FlightAware ADS-B
Fri 06:09:04 AM -14.3210 -48.7480 156° South 430 495 33,000  Level FlightAware ADS-B
Fri 06:09:44 AM -14.3950 -48.7130 155° Southeast 429 494 33,000  Level FlightAware ADS-B
Fri 06:10:29 AM -14.4750 -48.6760 156° South 428 493 33,000  Level FlightAware ADS-B
Fri 06:10:54 AM -14.5190 -48.6560 156° South 429 494 33,000  Level FlightAware ADS-B
Fri 06:11:49 AM -14.6220 -48.6080 156° South 428 493 33,000  Level FlightAware ADS-B
Fri 06:12:29 AM -14.6940 -48.5750 156° South 426 490 33,000  Level FlightAware ADS-B
Fri 06:13:09 AM -14.7660 -48.5410 155° Southeast 426 490 33,000  Level FlightAware ADS-B
Fri 06:14:04 AM -14.8570 -48.4760 145° Southeast 433 498 33,000  Level FlightAware ADS-B
Fri 06:14:39 AM -14.9110 -48.4310 141° Southeast 433 498 33,000  Level FlightAware ADS-B
Fri 06:16:49 AM -15.1090 -48.2570 140° Southeast 436 502 33,000  Level FlightAware ADS-B
Fri 06:17:29 AM -15.1730 -48.2010 140° Southeast 436 502 33,000  Level FlightAware ADS-B
Fri 06:18:14 AM -15.2350 -48.1460 139° Southeast 438 504 33,000  Level FlightAware ADS-B
Fri 06:18:54 AM -15.3010 -48.0880 140° Southeast 439 505 33,000  Level FlightAware ADS-B
Fri 06:19:39 AM -15.3680 -48.0280 139° Southeast 440 506 33,000  Level FlightAware ADS-B
Fri 06:20:19 AM -15.4340 -47.9700 140° Southeast 441 507 33,000  Level FlightAware ADS-B
Fri 06:20:54 AM -15.4870 -47.9220 139° Southeast 441 507 33,000  Level FlightAware ADS-B
Fri 06:21:35 AM -15.5520 -47.8650 140° Southeast 441 507 33,000  Level FlightAware ADS-B
Fri 06:22:14 AM -15.6110 -47.8130 140° Southeast 441 507 33,000  Level FlightAware ADS-B
Fri 06:23:14 AM -15.7090 -47.7320 141° Southeast 438 504 33,000  Level FlightAware ADS-B
Fri 06:23:54 AM -15.7730 -47.6840 144° Southeast 438 504 33,000  Level FlightAware ADS-B
Fri 06:24:34 AM -15.8420 -47.6330 145° Southeast 438 504 33,000  Level FlightAware ADS-B
Fri 06:25:19 AM -15.9160 -47.5770 144° Southeast 439 505 33,000  Level FlightAware ADS-B
Fri 06:25:59 AM -15.9810 -47.5290 145° Southeast 441 507 33,000  Level FlightAware ADS-B
Fri 06:26:44 AM -16.0540 -47.4750 145° Southeast 439 505 33,000  Level FlightAware ADS-B
Fri 06:27:26 AM -16.1270 -47.4210 145° Southeast 438 504 33,000  Level FlightAware ADS-B
Fri 06:28:06 AM -16.1920 -47.3720 144° Southeast 436 502 33,000  Level FlightAware ADS-B
Fri 06:28:44 AM -16.2480 -47.3300 144° Southeast 436 502 33,000  Level FlightAware ADS-B
Fri 06:29:32 AM -16.3150 -47.2790 144° Southeast 436 502 33,000  Level FlightAware ADS-B
Fri 06:30:08 AM -16.3650 -47.2420 145° Southeast 436 502 33,000  Level FlightAware ADS-B
Fri 06:30:45 AM -16.4160 -47.2030 144° Southeast 436 502 33,000  Level FlightAware ADS-B
Fri 06:31:33 AM -16.4830 -47.1520 144° Southeast 436 502 33,000  Level FlightAware ADS-B
Fri 06:32:11 AM -16.5350 -47.1120 144° Southeast 436 502 33,000  Level FlightAware ADS-B
Fri 06:32:59 AM -16.6020 -47.0620 144° Southeast 436 502 33,000  Level FlightAware ADS-B
Fri 06:33:35 AM -16.6520 -47.0240 144° Southeast 436 502 33,000  Level FlightAware ADS-B
Fri 06:34:12 AM -16.7030 -46.9850 144° Southeast 436 502 33,000  Level FlightAware ADS-B
Fri 06:34:53 AM -16.8960 -46.9410 168° South 429 494 33,000  Level FlightAware ADS-B
Fri 06:35:33 AM -16.9640 -46.9010 151° Southeast 429 494 33,000  Level FlightAware ADS-B
Fri 06:36:12 AM -17.0210 -46.8670 150° Southeast 429 494 33,000  Level FlightAware ADS-B
Fri 06:36:55 AM -17.1070 -46.8180 151° Southeast 430 495 33,000  Level FlightAware ADS-B
Fri 06:37:30 AM -17.1680 -46.7830 151° Southeast 432 497 33,000  Level FlightAware ADS-B
Fri 06:38:19 AM -17.2540 -46.7330 151° Southeast 432 497 33,000  Level FlightAware ADS-B
Fri 06:38:59 AM -17.3240 -46.6920 151° Southeast 432 497 33,000  Level FlightAware ADS-B
Fri 06:39:41 AM -17.3970 -46.6500 151° Southeast 433 498 33,000  Level FlightAware ADS-B
Fri 06:40:24 AM -17.4620 -46.6100 150° Southeast 433 498 33,000  Level FlightAware ADS-B
Fri 06:41:01 AM -17.5170 -46.5770 150° Southeast 433 498 33,000  Level FlightAware ADS-B
Fri 06:41:39 AM -17.5730 -46.5430 150° Southeast 433 498 33,000  Level FlightAware ADS-B
Fri 06:42:39 AM -17.6610 -46.4900 150° Southeast 433 498 33,000  Level FlightAware ADS-B
Fri 06:43:15 AM -17.7150 -46.4570 150° Southeast 433 498 33,000  Level FlightAware ADS-B
Fri 06:44:03 AM -17.7850 -46.4150 150° Southeast 433 498 33,000  Level FlightAware ADS-B
Fri 06:44:40 AM -17.8400 -46.3810 150° Southeast 433 498 33,000  Level FlightAware ADS-B
Fri 06:45:28 AM -17.9110 -46.3390 151° Southeast 433 498 33,000  Level FlightAware ADS-B
Fri 06:46:04 AM -17.9640 -46.3060 149° Southeast 433 498 33,000  Level FlightAware ADS-B
Fri 06:46:52 AM -18.0350 -46.2630 150° Southeast 433 498 33,000  Level FlightAware ADS-B
Fri 06:47:28 AM -18.0880 -46.2310 150° Southeast 433 498 33,000  Level FlightAware ADS-B
Fri 06:48:43 AM -18.3400 -46.0940 153° Southeast 441 507 33,000  Level FlightAware ADS-B
Fri 06:49:20 AM -18.3950 -46.0600 150° Southeast 441 507 33,000  Level FlightAware ADS-B
Fri 06:50:08 AM -18.4670 -46.0160 150° Southeast 441 507 33,000  Level FlightAware ADS-B
Fri 06:50:39 AM -18.5610 -45.9650 153° Southeast 446 513 33,000  Level FlightAware ADS-B
Fri 06:51:23 AM -18.6420 -45.9180 151° Southeast 447 514 33,000  Level FlightAware ADS-B
Fri 06:52:01 AM -18.7040 -45.8810 151° Southeast 448 516 33,000  Level FlightAware ADS-B
Fri 06:52:45 AM -18.7900 -45.8300 151° Southeast 448 516 33,000  Level FlightAware ADS-B
Fri 06:53:26 AM -18.8600 -45.7880 150° Southeast 433 498 33,000  Level FlightAware ADS-B
Fri 06:54:08 AM -18.9340 -45.7450 151° Southeast 425 489 33,000  Level FlightAware ADS-B
Fri 06:54:50 AM -19.0070 -45.7020 151° Southeast 423 487 33,000  Level FlightAware ADS-B
Fri 06:55:30 AM -19.0760 -45.6610 151° Southeast 422 486 33,000  Level FlightAware ADS-B
Fri 06:56:08 AM -19.1410 -45.6230 151° Southeast 421 484 33,000  Level FlightAware ADS-B
Fri 06:56:43 AM -19.1910 -45.5930 150° Southeast 421 484 33,000  Level FlightAware ADS-B
Fri 06:57:29 AM -19.2570 -45.5520 150° Southeast 421 484 33,000  Level FlightAware ADS-B
Fri 06:58:17 AM -19.3260 -45.5100 150° Southeast 421 484 33,000  Level FlightAware ADS-B
Fri 06:58:53 AM -19.3770 -45.4790 150° Southeast 421 484 33,000  Level FlightAware ADS-B
Fri 06:59:41 AM -19.4460 -45.4360 150° Southeast 421 484 33,000  Level FlightAware ADS-B
Fri 07:00:22 AM -19.5050 -45.4000 150° Southeast 421 484 33,000  Level FlightAware ADS-B
Fri 07:01:11 AM -19.5750 -45.3570 150° Southeast 421 484 33,000  Level FlightAware ADS-B
Fri 07:01:57 AM -19.6410 -45.3170 150° Southeast 421 484 33,000  Level FlightAware ADS-B
Fri 07:02:34 AM -19.6940 -45.2840 150° Southeast 421 484 33,000 1,348 Level FlightAware ADS-B
Fri 07:02:46 AM -19.7650 -45.2120 136° Southeast 35,000 2,308 Climbing FlightAware ADS-B
Fri 07:03:26 AM -19.8230 -45.1770 150° Southeast 400 460 35,000  Level FlightAware ADS-B
Fri 07:04:24 AM -19.9040 -45.1280 150° Southeast 399 459 35,000  Level FlightAware ADS-B
Fri 07:05:07 AM -19.9720 -45.0870 150° Southeast 399 459 35,000  Level FlightAware ADS-B
Fri 07:05:49 AM -20.0530 -45.0380 150° Southeast 400 460 35,000  Level FlightAware ADS-B
Fri 07:06:32 AM -20.1220 -44.9960 150° Southeast 401 461 35,000  Level FlightAware ADS-B
Fri 07:07:09 AM -20.1800 -44.9610 150° Southeast 403 464 35,000  Level FlightAware ADS-B
Fri 07:07:45 AM -20.2400 -44.9250 151° Southeast 403 464 35,000  Level FlightAware ADS-B
Fri 07:08:28 AM -20.3110 -44.8820 150° Southeast 404 465 35,000  Level FlightAware ADS-B
Fri 07:09:05 AM -20.3790 -44.8400 150° Southeast 406 467 35,000  Level FlightAware ADS-B
Fri 07:09:49 AM -20.4400 -44.8040 151° Southeast 408 470 35,000  Level FlightAware ADS-B
Fri 07:11:43 AM -20.6270 -44.6890 150° Southeast 412 474 35,000  Level FlightAware ADS-B
Fri 07:12:27 AM -20.7070 -44.6400 150° Southeast 414 476 35,000 -209 Level FlightAware ADS-B
Fri 07:13:09 AM -20.7860 -44.5920 150° Southeast 406 467 34,700 -951 Descending FlightAware ADS-B
Fri 07:13:49 AM -20.8500 -44.5520 150° Southeast 413 475 33,700 -1,443 Descending FlightAware ADS-B
Fri 07:14:28 AM -20.9000 -44.5210 150° Southeast 424 488 32,800 -1,421 Descending FlightAware ADS-B
Fri 07:15:05 AM -20.9590 -44.4850 150° Southeast 432 497 31,900 -1,167 Descending FlightAware ADS-B
Fri 07:16:00 AM -21.0730 -44.4140 150° Southeast 30,500 -1,065 Descending FlightAware ADS-B
Fri 07:16:52 AM -21.1580 -44.3610 150° Southeast 428 493 30,000 -1,160 Descending FlightAware ADS-B
Fri 07:17:50 AM -21.2630 -44.2950 150° Southeast 28,300 -1,469 Descending FlightAware ADS-B
Fri 07:18:30 AM -21.3340 -44.2500 149° Southeast 427 491 27,600 -907 Descending FlightAware ADS-B
Fri 07:19:16 AM -21.4090 -44.2020 149° Southeast 408 470 27,000 -1,188 Descending FlightAware ADS-B
Fri 07:20:11 AM -21.4530 -44.1750 150° Southeast 372 428 25,600 -1,446 Descending FlightAware ADS-B
Fri 07:21:08 AM -21.5270 -44.1290 150° Southeast 359 413 24,300 -1,600 Descending FlightAware ADS-B
Fri 07:21:56 AM -21.6050 -44.0790 149° Southeast 359 413 22,800 -1,605 Descending FlightAware ADS-B
Fri 07:22:34 AM -21.6580 -44.0450 149° Southeast 355 409 22,000 -1,091 Descending FlightAware ADS-B
Fri 07:23:13 AM -21.7000 -44.0180 149° Southeast 345 397 21,400 -1,169 Descending FlightAware ADS-B
Fri 07:23:51 AM -21.7590 -43.9810 150° Southeast 335 386 20,500 -1,429 Descending FlightAware ADS-B
Fri 07:24:37 AM -21.8130 -43.9460 149° Southeast 333 383 19,400 -1,200 Descending FlightAware ADS-B
Fri 07:25:16 AM -21.8590 -43.9160 149° Southeast 325 374 18,800 -918 Descending FlightAware ADS-B
Fri 07:26:02 AM -21.9110 -43.8820 149° Southeast 308 354 18,100 -1,143 Descending FlightAware ADS-B
Fri 07:26:40 AM -21.9570 -43.8530 150° Southeast 300 345 17,200 -1,462 Descending FlightAware ADS-B
Fri 07:27:20 AM -22.0040 -43.8220 149° Southeast 286 329 16,200 -1,308 Descending FlightAware ADS-B
Fri 07:27:58 AM -22.0640 -43.7830 149° Southeast 273 314 15,500 -1,043 Descending FlightAware ADS-B
Fri 07:28:52 AM -22.1100 -43.7540 150° Southeast 271 312 14,600 -574 Descending FlightAware ADS-B
Fri 07:29:32 AM -22.1460 -43.7290 147° Southeast 271 312 14,600  Level FlightAware ADS-B
Fri 07:30:27 AM -22.1960 -43.6960 149° Southeast 271 312 14,600 -1,392 Level FlightAware ADS-B
Fri 07:33:00 AM -22.4312 -43.4514 150° Southeast  Level FlightAware Approximate
Fri 07:34:00 AM -22.5420 -43.3879 152° Southeast  Level FlightAware Approximate
Fri 07:34:38 AM -22.5100 -43.6650 152° Southeast 215 247 7,500  Level FlightAware ADS-B
Fri 07:35:03 AM -22.5320 -43.6710 194° South 213 245 7,100 -720 Descending FlightAware ADS-B
Fri 07:35:28 AM -22.5570 -43.6790 196° South 212 244 6,900 -554 Descending FlightAware ADS-B
Fri 07:36:08 AM -22.5920 -43.6700 167° South 212 244 6,500 -738 Descending FlightAware ADS-B
Fri 07:36:33 AM -22.6060 -43.6480 125° Southeast 212 244 6,100 -800 Descending FlightAware ADS-B
Fri 07:36:53 AM -22.6160 -43.6310 123° Southeast 209 241 5,900 -667 Descending FlightAware ADS-B
Fri 07:37:18 AM -22.6290 -43.6090 123° Southeast 204 235 5,600 -800 Descending FlightAware ADS-B
Fri 07:37:38 AM -22.6390 -43.5910 121° Southeast 206 237 5,300 -800 Descending FlightAware ADS-B
Fri 07:38:03 AM -22.6490 -43.5730 121° Southeast 208 239 5,000 -1,091 Descending FlightAware ADS-B
Fri 07:38:33 AM -22.6640 -43.5430 118° Southeast 204 235 4,300 -1,200 Descending FlightAware ADS-B
Fri 07:39:03 AM -22.6690 -43.5150 101° East 203 234 3,800 -1,091 Descending FlightAware ADS-B
Fri 07:39:28 AM -22.6720 -43.4880 97° East 213 245 3,300 -1,200 Descending FlightAware ADS-B
Fri 07:39:53 AM -22.6740 -43.4630 95° East 209 241 2,800 -556 Descending FlightAware ADS-B
Fri 07:40:22 AM -22.6770 -43.4370 97° East 209 241 2,800 -1,067 Level FlightAware ADS-B
Fri 07:40:38 AM -22.6970 -43.4200 142° Southeast 186 214 2,000 -1,696 Descending FlightAware ADS-B
Fri 07:41:08 AM -22.7110 -43.4000 127° Southeast 166 191 1,500 -873 Descending FlightAware ADS-B
Fri 07:41:33 AM -22.7220 -43.3830 125° Southeast 162 186 1,200 -764 Descending FlightAware ADS-B
Fri 07:42:03 AM -22.7350 -43.3640 127° Southeast 162 186 800 -873 Descending FlightAware ADS-B
Fri 07:42:28 AM -22.7460 -43.3470 125° Southeast 164 189 400 -840 Descending FlightAware ADS-B
Fri 07:42:53 AM -22.7580 -43.3300 127° Southeast 160 184 100 -720 Descending FlightAware ADS-B
Fri 07:43:23 AM -22.7680 -43.3140 124° Southeast 160 184 -200 Descending FlightAware ADS-B

Login

Don't have an account? Register now (free) for customized features, flight alerts, and more!